Date,TemperatureHighF,TemperatureAvgF,TemperatureLowF,DewpointHighF,DewpointAvgF,DewpointLowF,HumidityHigh,HumidityAvg,HumidityLow,PressureMaxIn,PressureMinIn,WindSpeedMaxMPH,WindSpeedAvgMPH,GustSpeedMaxMPH,PrecipitationSumIn
2014-1-1,33,29,22,21,15,8,67,58,47,30.41,30.26,11,1,11,0.00
2014-1-2,32,26,18,26,23,15,92,85,66,30.25,29.65,10,4,16,0.00
2014-1-3,18,13,8,15,7,-3,90,77,57,30.46,29.61,11,3,17,0.00
2014-1-4,27,16,4,15,7,-3,89,70,43,30.53,30.31,6,1,10,0.00
2014-1-5,51,32,14,50,30,12,98,93,88,30.32,29.77,5,1,13,0.15
2014-1-6,55,44,23,55,39,8,98,83,51,29.76,29.41,15,3,22,0.33
2014-1-7,21,9,5,6,-8,-13,52,45,36,30.39,29.70,11,5,21,0.00
2014-1-8,23,16,8,5,0,-6,62,52,43,30.56,30.39,6,1,12,0.00
2014-1-9,33,25,21,17,12,5,78,58,39,30.65,30.50,4,0,8,0.00
2014-1-10,38,32,22,37,29,17,96,86,72,30.59,30.21,0,0,2,0.12
2014-1-11,56,51,38,55,50,37,98,97,95,30.21,29.35,10,2,23,0.67
2014-1-12,50,44,36,50,32,28,98,66,48,30.07,29.40,10,3,17,0.01
2014-1-13,52,42,29,42,36,27,93,80,67,30.16,29.91,16,2,16,0.00
2014-1-14,48,46,41,47,44,40,97,94,86,29.91,29.66,4,0,9,0.62
2014-1-15,44,39,34,43,38,33,98,96,89,30.01,29.84,4,0,8,0.01
2014-1-16,40,38,30,39,34,28,97,86,76,29.95,29.84,5,0,9,0.00
2014-1-17,46,36,26,36,31,25,96,85,67,30.00,29.88,7,1,13,0.00
2014-1-18,41,36,29,37,30,20,95,82,67,29.87,29.65,7,2,15,0.20
2014-1-19,37,31,25,27,21,16,74,66,57,29.83,29.66,9,3,19,0.00
2014-1-20,47,39,33,31,26,19,74,61,46,29.88,29.57,11,3,21,0.00
2014-1-21,32,20,12,19,13,9,89,76,51,29.99,29.81,9,2,15,0.00
2014-1-22,18,11,5,8,1,-4,86,65,50,29.99,29.76,14,3,18,0.00
2014-1-23,21,14,7,7,2,-2,70,59,47,30.29,29.99,9,2,14,0.00
2014-1-24,21,15,10,6,1,-2,62,54,41,30.38,30.11,11,3,20,0.00
2014-1-25,30,25,19,24,15,6,92,66,50,30.10,29.45,13,4,24,0.00
2014-1-26,35,23,17,28,10,-1,81,58,42,29.91,29.48,12,3,19,0.00
2014-1-27,45,35,21,35,22,-1,89,63,32,30.07,29.62,8,2,16,0.00
2014-1-28,20,17,13,7,-3,-6,67,41,33,30.37,30.07,8,1,15,0.00
2014-1-29,25,18,14,12,4,-1,86,56,35,30.29,30.09,11,2,14,0.00
2014-1-30,30,21,12,21,9,1,87,60,40,30.46,30.20,5,0,10,0.00
2014-1-31,42,33,25,21,17,14,80,53,34,30.23,30.10,6,1,10,0.00
2014-2-1,46,36,30,32,26,21,92,68,45,30.34,30.02,4,0,7,0.00
2014-2-2,57,42,31,40,36,29,96,80,51,30.08,29.91,6,0,7,0.00
2014-2-3,42,33,27,37,31,24,96,92,80,30.31,30.05,4,0,10,0.10
2014-2-4,36,28,19,27,24,17,91,83,67,30.46,30.26,0,0,0,0.25
2014-2-5,34,32,30,33,30,27,95,93,86,30.25,29.62,8,0,11,0.52
2014-2-6,30,26,23,27,20,17,89,78,61,30.28,29.96,5,1,11,0.00
2014-2-7,34,28,22,20,17,12,82,64,50,30.33,30.21,9,2,11,0.00
2014-2-8,29,25,19,16,10,5,66,53,39,30.34,30.14,3,0,15,0.00
2014-2-9,31,25,19,25,14,8,92,66,47,30.19,29.99,3,0,6,0.00
2014-2-10,29,24,20,22,13,9,89,63,47,30.27,29.99,7,2,14,0.00
2014-2-11,26,20,15,9,7,5,71,58,46,30.47,30.28,6,1,11,0.00
2014-2-12,26,19,11,22,9,3,84,64,49,30.57,30.28,4,1,10,0.00
2014-2-13,34,32,26,33,31,22,97,95,85,30.28,28.99,11,3,21,0.00
2014-2-14,40,35,27,33,28,24,97,78,59,29.78,28.99,11,3,21,0.31
2014-2-15,38,31,27,30,27,18,95,85,64,29.79,29.54,8,2,18,0.01
2014-2-16,30,25,21,18,12,-100,71,61,50,30.08,29.71,11,-8,17,0.00
2014-2-17,33,23,17,15,8,3,75,54,31,30.37,30.09,7,1,14,0.00
2014-2-18,41,33,23,38,26,11,96,77,54,30.33,29.94,8,1,14,0.18
2014-2-19,45,38,26,43,35,23,95,89,77,30.11,29.69,6,1,13,0.35
2014-2-20,50,40,30,37,31,26,94,71,44,30.25,29.98,3,1,12,0.02
2014-2-21,50,41,35,49,40,33,98,96,91,30.03,29.67,8,1,17,0.08
2014-2-22,56,43,32,35,30,23,97,66,30,30.05,29.92,14,2,21,0.00
2014-2-23,56,45,31,39,32,28,97,64,36,30.02,29.83,4,0,10,0.00
2014-2-24,44,35,27,35,19,8,89,55,34,30.08,29.80,8,3,22,0.02
2014-2-25,34,27,20,16,12,8,68,54,44,30.09,29.92,6,2,14,0.00
2014-2-26,31,25,17,26,12,-2,89,60,34,29.98,29.81,6,2,14,0.00
2014-2-27,33,23,12,23,7,-12,76,52,28,30.09,29.62,13,3,19,0.00
2014-2-28,25,17,9,5,-4,-13,65,41,30,30.44,30.10,7,1,20,0.01
2014-3-1,38,28,14,31,16,4,88,64,45,30.43,30.16,8,1,13,0.00
2014-3-2,41,36,31,29,25,20,86,65,51,30.15,29.98,7,1,8,0.00
2014-3-3,33,22,17,21,8,0,86,56,41,30.33,29.99,10,2,16,0.00
2014-3-4,31,21,12,17,7,0,68,54,31,30.42,30.25,4,1,8,0.00
2014-3-5,39,30,22,18,14,10,78,53,31,30.43,30.21,7,1,13,0.00
2014-3-6,32,24,17,13,9,3,65,52,36,30.63,30.44,7,2,13,0.00
2014-3-7,34,31,25,30,24,13,85,75,61,30.47,29.90,6,1,10,0.00
2014-3-8,58,45,30,33,30,27,90,61,36,29.90,29.75,8,1,15,0.00
2014-3-9,44,40,35,30,20,12,70,46,28,30.01,29.88,9,2,15,0.00
2014-3-10,52,42,37,36,27,13,83,57,36,29.94,29.62,8,1,11,0.00
2014-3-11,66,52,39,39,36,33,82,57,31,29.70,29.56,6,1,12,0.00
2014-3-12,58,48,39,49,43,36,96,83,71,29.68,29.01,10,2,15,0.27
2014-3-13,38,24,18,34,7,-2,87,50,27,30.07,29.11,14,5,25,0.00
2014-3-14,43,31,19,33,14,-100,80,51,38,30.23,29.93,16,-8,18,0.00
2014-3-15,60,49,39,36,30,23,85,53,28,29.99,29.76,12,3,22,0.02
2014-3-16,44,35,30,26,12,6,54,39,29,30.19,29.99,7,2,13,0.00
2014-3-17,34,28,24,8,5,1,49,38,28,30.13,30.03,7,2,14,0.00
2014-3-18,44,32,23,27,13,-100,79,52,27,30.30,30.12,14,-30,14,0.00
2014-3-19,45,37,27,44,32,24,95,82,66,30.32,29.84,13,3,18,0.56
2014-3-20,55,47,41,43,34,24,97,65,37,29.89,29.72,18,3,18,0.12
2014-3-21,52,43,35,25,22,20,62,44,29,30.06,29.89,10,3,17,0.00
2014-3-22,65,49,33,41,32,23,77,55,28,30.06,29.75,12,2,17,0.00
2014-3-23,44,38,28,27,19,8,65,47,27,30.10,29.96,9,2,13,0.00
2014-3-24,36,28,21,9,6,4,52,41,28,30.24,30.09,13,2,14,0.00
2014-3-25,40,31,19,20,14,8,70,51,34,30.17,29.84,8,1,12,0.00
2014-3-26,37,32,24,23,12,1,77,44,28,30.20,29.71,16,5,25,0.00
2014-3-27,41,32,22,28,14,4,70,50,22,30.42,30.22,16,3,18,0.00
2014-3-28,52,45,36,46,40,28,91,81,70,30.28,29.98,7,2,15,0.00
2014-3-29,48,45,40,46,44,39,97,93,84,30.18,29.69,7,2,14,2.12
2014-3-30,54,46,39,53,46,38,98,96,93,29.68,29.45,12,3,16,1.01
2014-3-31,54,42,33,38,34,28,96,77,51,30.06,29.64,11,3,17,0.33
2014-4-1,59,44,34,37,32,28,80,63,39,30.12,29.98,6,1,12,0.00
2014-4-2,53,44,38,44,40,35,95,87,71,30.15,30.05,6,0,8,0.02
2014-4-3,65,50,38,42,34,25,96,61,25,30.13,30.00,4,1,9,0.00
2014-4-4,45,42,40,42,38,34,95,85,69,30.10,29.73,13,3,25,0.06
2014-4-5,56,47,39,44,34,24,96,65,38,30.06,29.70,12,3,21,0.04
2014-4-6,60,45,36,35,26,20,83,51,25,30.23,30.06,6,2,11,0.00
2014-4-7,51,45,36,48,39,29,96,82,44,30.22,29.71,10,2,20,0.46
2014-4-8,67,55,48,58,46,35,98,76,44,29.69,29.39,12,3,21,0.29
2014-4-9,62,51,38,37,31,18,84,50,28,30.01,29.61,10,2,20,0.00
2014-4-10,56,48,32,40,28,17,73,49,30,30.23,30.03,13,3,18,0.00
2014-4-11,74,59,47,52,45,38,87,64,38,30.05,29.94,6,1,13,0.00
2014-4-12,70,58,48,52,44,34,91,64,29,30.22,29.99,8,1,13,0.00
2014-4-13,70,58,46,55,50,44,93,77,59,30.21,30.00,11,2,19,0.00
2014-4-14,69,59,52,57,53,50,94,82,61,30.04,29.88,18,4,22,0.00
2014-4-15,58,52,35,57,52,33,98,96,91,29.89,29.55,11,4,22,0.85
2014-4-16,48,39,30,33,22,18,95,55,34,30.56,29.88,11,3,18,0.13
2014-4-17,48,40,34,33,28,21,76,61,46,30.72,30.57,10,2,14,0.00
2014-4-18,49,40,32,36,32,28,87,72,57,30.61,30.27,4,1,9,0.00
2014-4-19,66,53,38,40,33,25,92,54,24,30.33,30.22,7,1,14,0.00
2014-4-20,56,49,40,35,30,27,66,49,35,30.49,30.33,10,2,16,0.00
2014-4-21,64,50,34,43,36,28,87,63,38,30.32,29.89,4,1,8,0.00
2014-4-22,65,54,44,51,47,42,94,78,56,29.88,29.50,10,2,16,0.00
2014-4-23,60,53,45,50,40,31,93,63,43,29.80,29.47,13,4,27,0.00
2014-4-24,63,52,41,32,21,13,65,34,15,30.00,29.80,12,3,19,0.00
2014-4-25,62,51,38,41,29,20,74,44,27,30.04,29.79,5,1,12,0.00
2014-4-26,66,51,44,50,45,42,95,81,41,29.88,29.70,10,2,14,0.72
2014-4-27,59,52,43,45,38,35,94,63,43,30.11,29.86,8,2,13,0.00
2014-4-28,65,53,42,43,38,33,80,59,32,30.14,30.01,7,2,11,0.00
2014-4-29,49,46,42,42,40,38,88,77,67,30.42,30.14,12,5,21,0.04
2014-4-30,54,45,41,53,43,38,98,93,83,30.41,29.97,12,5,21,4.44
2014-5-1,74,61,54,66,57,53,98,89,63,29.96,29.68,11,2,14,0.51
2014-5-2,70,61,52,58,44,36,94,57,33,29.84,29.69,13,2,15,0.01
2014-5-3,70,58,46,50,43,39,88,61,36,29.88,29.75,8,1,15,0.00
2014-5-4,65,58,52,50,40,28,90,55,31,29.78,29.63,12,3,18,0.01
2014-5-5,69,59,48,40,35,26,69,43,25,29.88,29.76,8,2,16,0.00
2014-5-6,69,58,47,40,34,29,65,44,26,30.06,29.86,6,1,16,0.00
2014-5-7,68,56,46,47,36,30,79,49,27,30.23,30.06,8,1,13,0.00
2014-5-8,57,55,52,56,52,44,96,91,66,30.19,30.09,3,0,5,0.40
2014-5-9,65,59,54,61,58,54,98,94,86,30.19,30.00,6,1,10,0.03
2014-5-10,81,66,54,67,60,53,98,84,58,30.00,29.82,6,1,15,0.10
2014-5-11,82,68,57,63,53,44,95,63,27,30.07,29.86,5,1,11,0.14
2014-5-12,84,68,54,62,57,52,93,70,40,30.11,30.03,9,1,12,0.00
2014-5-13,75,63,50,61,50,42,96,67,39,30.29,30.00,9,2,14,0.00
2014-5-14,69,57,49,59,52,45,95,83,66,30.31,30.24,6,1,10,0.00
2014-5-15,75,66,60,68,63,59,97,92,76,30.24,30.09,7,2,14,0.05
2014-5-16,69,64,61,66,60,-100,97,92,89,30.09,29.79,12,-18,21,0.72
2014-5-17,72,62,51,61,50,43,98,70,35,30.09,29.83,10,1,12,0.04
2014-5-18,68,59,47,44,40,36,86,53,36,30.18,30.09,10,1,12,0.00
2014-5-19,73,60,43,45,38,32,82,47,27,30.20,30.05,6,1,15,0.00
2014-5-20,80,65,52,51,43,36,71,50,21,30.11,29.95,5,1,12,0.00
2014-5-21,76,68,61,56,50,44,79,56,38,29.98,29.90,4,0,7,0.00
2014-5-22,61,59,57,58,56,54,96,90,79,29.89,29.81,5,1,8,0.46
2014-5-23,68,60,56,61,57,54,97,91,77,29.93,29.83,5,0,7,0.18
2014-5-24,68,60,55,56,55,52,97,83,62,30.08,29.90,4,1,9,0.03
2014-5-25,82,67,53,58,54,44,97,69,27,30.09,30.02,6,1,11,0.00
2014-5-26,88,74,56,57,54,51,96,56,29,30.04,29.87,9,2,18,0.00
2014-5-27,88,77,63,66,60,55,81,57,39,29.89,29.74,6,1,13,0.00
2014-5-28,73,57,53,63,52,46,92,84,73,30.17,29.79,6,1,17,0.00
2014-5-29,66,56,50,50,46,43,81,68,55,30.21,30.15,6,1,9,0.00
2014-5-30,74,63,53,58,52,45,94,69,50,30.16,29.98,5,1,10,0.17
2014-5-31,72,62,51,55,51,46,96,70,45,30.29,30.05,9,1,13,0.01
2014-6-1,79,64,48,50,45,37,92,55,25,30.35,30.25,5,1,8,0.00
2014-6-2,78,66,53,58,51,43,81,60,38,30.27,30.02,7,1,13,0.00
2014-6-3,86,72,59,70,61,56,90,72,50,30.03,29.82,7,1,10,0.04
2014-6-4,81,69,61,66,62,59,95,81,54,29.85,29.74,5,1,9,0.00
2014-6-5,76,66,61,64,60,52,96,81,55,29.79,29.62,6,1,13,0.59
2014-6-6,78,68,60,55,52,49,72,57,43,29.93,29.77,8,1,13,0.00
2014-6-7,84,70,56,58,55,53,91,62,35,29.99,29.91,5,1,12,0.00
2014-6-8,88,74,59,63,58,54,94,63,32,29.95,29.87,8,1,13,0.00
2014-6-9,68,66,61,66,63,59,96,91,75,29.96,29.89,3,0,7,0.98
2014-6-10,77,70,67,70,67,65,97,90,78,29.98,29.91,4,0,6,0.00
2014-6-11,70,65,60,67,60,57,95,84,66,30.10,29.98,12,2,16,0.03
2014-6-12,76,67,60,70,64,57,96,91,81,30.08,29.92,6,1,14,0.00
2014-6-13,82,70,67,74,68,66,98,94,75,29.91,29.72,6,1,8,1.27
2014-6-14,78,69,60,67,60,49,98,75,47,30.01,29.77,8,1,13,0.00
2014-6-15,81,69,58,59,55,51,82,64,44,30.08,30.01,12,1,12,0.00
2014-6-16,81,71,58,61,58,53,95,67,40,30.15,30.06,3,1,9,0.00
2014-6-17,88,76,66,72,68,62,94,78,57,30.07,29.88,6,1,10,0.00
2014-6-18,90,82,74,71,66,62,85,60,42,29.96,29.79,5,1,12,0.00
2014-6-19,78,72,68,68,66,62,92,80,70,30.01,29.93,8,1,11,0.01
2014-6-20,82,72,62,66,51,45,95,51,31,30.00,29.88,6,1,11,0.00
2014-6-21,78,69,60,56,50,46,83,53,38,29.97,29.89,7,1,8,0.00
2014-6-22,79,68,58,60,56,53,95,68,42,30.03,29.91,6,0,8,0.00
2014-6-23,85,71,58,65,59,55,97,68,40,30.16,30.03,6,1,10,0.00
2014-6-24,81,72,63,66,63,61,93,75,54,30.16,30.03,9,1,13,0.00
2014-6-25,85,74,68,75,70,65,96,87,71,30.03,29.84,7,1,12,0.00
2014-6-26,88,78,70,73,70,66,98,77,54,29.96,29.80,7,1,9,0.04
2014-6-27,83,73,64,65,62,57,85,69,46,30.21,29.97,6,1,12,0.00
2014-6-28,87,73,60,64,60,52,96,66,31,30.27,30.21,4,1,12,0.00
2014-6-29,82,72,61,66,61,55,96,70,45,30.26,30.12,6,1,9,0.00
2014-6-30,84,74,65,70,67,62,95,78,58,30.13,29.95,8,1,10,0.00
2014-7-1,88,77,69,75,70,66,93,78,63,29.96,29.83,12,2,16,0.00
2014-7-2,89,78,71,77,72,67,97,81,62,29.95,29.84,9,1,17,0.75
2014-7-3,88,78,70,76,73,68,98,86,64,30.02,29.88,9,1,18,0.25
2014-7-4,74,68,64,70,64,-100,98,89,68,29.98,29.87,8,-9,17,0.37
2014-7-5,84,73,62,56,53,51,71,51,33,30.13,29.98,6,2,12,0.00
2014-7-6,84,74,61,65,60,54,84,62,36,30.09,29.93,8,2,13,0.00
2014-7-7,88,78,69,70,67,63,83,69,53,29.94,29.74,8,2,12,0.00
2014-7-8,92,80,72,73,69,64,87,72,48,29.84,29.68,10,2,23,0.00
2014-7-9,87,78,70,73,68,62,88,73,44,29.94,29.77,11,2,17,0.00
2014-7-10,86,75,68,69,65,62,94,73,49,30.13,29.94,4,1,8,0.02
2014-7-11,87,75,68,67,63,56,91,67,40,30.21,30.11,9,1,9,0.00
2014-7-12,86,75,64,69,65,61,97,75,44,30.23,30.14,5,1,12,0.00
2014-7-13,81,74,69,73,70,68,94,88,74,30.14,29.91,12,2,15,0.00
2014-7-14,86,76,70,75,72,69,97,86,67,29.95,29.83,3,0,10,1.41
2014-7-15,88,74,70,77,72,69,98,93,71,29.83,29.73,4,0,10,1.10
2014-7-16,83,73,68,71,65,56,98,77,41,29.87,29.74,5,0,9,0.03
2014-7-17,84,72,62,63,60,57,91,69,43,30.09,29.87,4,0,7,0.00
2014-7-18,84,72,60,60,56,48,91,60,31,30.22,30.09,5,1,8,0.00
2014-7-19,80,70,64,63,60,56,90,70,48,30.24,30.17,4,0,9,0.00
2014-7-20,78,71,65,65,62,59,91,76,53,30.16,30.09,6,1,11,0.00
2014-7-21,86,72,61,67,63,60,97,76,46,30.19,30.12,4,1,9,0.00
2014-7-22,88,76,64,71,66,62,93,73,53,30.17,30.05,7,1,13,0.00
2014-7-23,88,78,70,76,70,62,90,76,67,30.04,29.77,13,2,15,0.00
2014-7-24,82,75,70,73,64,57,92,70,46,29.89,29.78,6,1,11,0.01
2014-7-25,85,74,64,66,59,55,87,62,38,30.02,29.89,6,1,10,0.00
2014-7-26,82,74,66,69,65,61,90,74,52,30.00,29.90,7,1,12,0.00
2014-7-27,86,77,69,75,71,67,95,82,66,29.90,29.65,8,1,13,0.00
2014-7-28,85,76,68,72,66,59,96,74,47,29.66,29.50,10,2,15,0.37
2014-7-29,78,70,62,59,55,51,82,61,42,29.96,29.66,5,1,11,0.00
2014-7-30,81,71,59,62,57,50,90,65,37,30.04,29.95,8,1,10,0.00
2014-7-31,84,73,61,69,63,57,96,73,48,30.14,30.04,7,1,12,0.00
2014-8-1,86,76,71,71,69,67,92,81,58,30.21,30.14,7,1,12,0.00
2014-8-2,75,68,64,68,65,61,95,88,73,30.19,30.09,8,1,11,0.48
2014-8-3,77,69,63,66,64,61,95,85,69,30.12,30.02,4,0,6,0.07
2014-8-4,85,75,68,71,69,66,96,81,61,30.06,30.02,6,1,11,0.00
2014-8-5,89,77,66,71,68,64,97,76,44,30.03,29.89,5,1,8,0.00
2014-8-6,85,75,66,70,64,58,89,70,42,29.90,29.82,4,1,8,0.00
2014-8-7,84,73,61,61,57,51,90,61,35,30.00,29.88,5,1,14,0.00
2014-8-8,82,71,59,64,57,53,90,64,37,30.08,30.00,3,0,8,0.00
2014-8-9,87,74,62,64,58,52,95,63,31,30.11,30.05,4,0,7,0.00
2014-8-10,90,76,63,66,61,56,92,65,34,30.13,30.07,4,1,9,0.00
2014-8-11,87,75,64,70,64,57,96,71,39,30.14,30.09,6,1,10,0.00
2014-8-12,80,74,70,71,68,66,94,83,70,30.09,29.86,10,2,17,0.17
2014-8-13,82,73,67,74,68,62,98,86,62,29.87,29.64,11,2,18,4.46
2014-8-14,80,72,63,61,55,51,76,58,38,29.88,29.76,5,1,14,0.00
2014-8-15,75,67,55,59,52,48,92,60,42,29.97,29.87,5,1,9,0.00
2014-8-16,79,69,56,64,57,52,94,67,43,30.01,29.91,9,1,15,0.00
2014-8-17,83,73,62,65,61,57,89,67,45,29.91,29.80,5,1,10,0.00
2014-8-18,82,70,57,64,59,55,93,70,44,29.91,29.81,6,0,9,0.00
2014-8-19,82,71,61,68,63,56,94,77,60,29.94,29.85,5,1,7,0.00
2014-8-20,84,73,63,68,63,59,97,73,45,30.02,29.92,4,0,9,0.00
2014-8-21,81,73,67,68,65,59,92,77,51,30.06,30.01,5,0,10,0.11
2014-8-22,79,70,65,68,63,58,96,78,59,30.05,29.99,4,1,9,0.06
2014-8-23,75,69,65,64,62,59,89,79,65,30.11,30.02,5,1,9,0.00
2014-8-24,80,69,59,62,60,57,96,76,46,30.15,30.10,5,1,11,0.00
2014-8-25,88,73,58,65,61,57,97,71,40,30.16,30.09,4,0,7,0.00
2014-8-26,87,75,65,72,67,63,96,77,54,30.16,30.07,3,0,10,0.00
2014-8-27,88,76,63,70,66,61,95,73,49,30.07,29.85,5,0,9,0.00
2014-8-28,82,74,66,70,60,52,89,63,40,30.04,29.83,10,2,11,0.00
2014-8-29,79,68,58,59,55,52,85,63,41,30.25,30.04,3,1,8,0.00
2014-8-30,80,70,59,68,62,56,93,76,54,30.27,30.15,6,1,10,0.00
2014-8-31,88,77,72,76,72,68,94,84,66,30.16,29.95,6,1,11,0.10
2014-9-1,89,79,73,76,73,71,95,82,58,30.00,29.92,6,1,10,0.00
2014-9-2,93,82,72,78,74,68,97,77,55,29.94,29.79,10,1,16,0.00
2014-9-3,86,77,68,70,64,57,91,64,38,30.09,29.80,5,1,15,0.00
2014-9-4,88,76,62,69,64,59,94,71,40,30.19,30.10,5,1,9,0.00
2014-9-5,86,78,70,75,72,69,95,84,66,30.17,30.02,7,1,10,0.00
2014-9-6,90,79,71,78,73,68,95,84,67,30.01,29.82,6,1,15,0.22
2014-9-7,80,70,63,67,59,52,91,70,47,30.18,29.92,6,1,11,0.00
2014-9-8,75,68,62,64,58,55,90,73,52,30.31,30.18,7,1,15,0.00
2014-9-9,73,67,63,64,59,54,84,76,69,30.27,30.14,8,1,11,0.00
2014-9-10,77,68,62,65,61,58,91,80,57,30.13,30.02,4,1,8,0.00
2014-9-11,83,73,65,73,68,62,93,83,68,30.02,29.81,8,1,15,0.00
2014-9-12,75,67,60,62,55,52,80,66,48,30.17,29.93,9,1,12,0.00
2014-9-13,68,63,60,62,58,53,96,83,69,30.18,30.08,9,1,19,0.34
2014-9-14,70,60,51,58,50,45,95,73,41,30.27,30.13,6,1,9,0.00
2014-9-15,73,61,52,53,50,45,89,69,40,30.23,30.08,4,0,8,0.00
2014-9-16,70,60,55,62,57,53,96,91,73,30.07,29.96,2,0,5,0.53
2014-9-17,75,61,50,57,51,44,98,74,37,30.06,29.95,4,0,8,0.01
2014-9-18,77,64,51,59,52,48,97,71,40,30.10,29.94,3,0,7,0.00
2014-9-19,66,60,54,53,49,44,86,69,52,30.38,30.10,6,1,11,0.00
2014-9-20,74,64,51,66,58,48,94,79,62,30.35,30.06,6,1,13,0.00
2014-9-21,78,71,66,72,68,65,98,90,78,30.05,29.59,4,0,6,0.11
2014-9-22,72,65,55,68,53,41,95,67,46,30.16,29.61,14,2,14,0.01
2014-9-23,71,58,44,53,47,41,94,68,44,30.41,30.16,6,0,8,0.00
2014-9-24,71,62,52,59,54,51,97,78,54,30.55,30.41,6,1,17,0.00
2014-9-25,62,61,58,59,56,53,94,86,74,30.47,30.20,6,2,16,0.34
2014-9-26,78,65,57,58,55,51,92,72,46,30.21,30.14,7,1,10,0.00
2014-9-27,84,68,56,62,58,54,95,74,43,30.21,30.15,5,0,7,0.00
2014-9-28,81,69,56,66,61,55,97,79,54,30.17,30.01,4,0,7,0.00
2014-9-29,79,68,61,66,63,60,96,84,60,30.00,29.89,2,0,5,0.00
2014-9-30,67,64,62,65,62,59,95,91,87,29.98,29.91,3,0,7,0.16
2014-10-1,63,61,60,60,59,58,97,92,87,30.07,29.96,6,1,7,0.04
2014-10-2,66,61,56,58,57,55,95,86,73,30.14,30.06,6,1,13,0.00
2014-10-3,71,61,51,57,54,50,96,80,53,30.12,29.86,6,1,11,0.00
2014-10-4,69,63,54,67,58,40,97,84,60,29.85,29.49,7,2,18,0.65
2014-10-5,62,52,44,41,37,34,88,58,40,30.00,29.68,6,1,11,0.00
2014-10-6,70,58,42,57,48,40,95,72,47,30.09,30.00,8,1,15,0.00
2014-10-7,73,67,63,63,61,56,91,81,57,30.06,29.93,8,2,13,0.02
2014-10-8,74,67,63,64,54,42,94,65,42,29.94,29.79,9,2,18,0.02
2014-10-9,68,60,47,48,43,39,90,56,35,30.05,29.94,10,2,14,0.00
2014-10-10,64,56,43,48,43,40,92,64,45,30.13,30.03,5,0,6,0.00
2014-10-11,58,53,45,53,49,44,96,88,65,30.16,30.02,6,0,12,0.49
2014-10-12,64,52,44,46,43,38,97,74,40,30.32,30.16,9,1,10,0.01
2014-10-13,66,57,43,61,53,41,96,86,66,30.34,30.24,2,0,7,0.03
2014-10-14,76,69,62,66,64,61,97,86,68,30.24,30.11,8,1,13,0.00
2014-10-15,76,71,68,69,67,65,94,88,79,30.11,29.85,9,2,15,0.19
2014-10-16,72,67,59,68,64,58,97,92,73,29.85,29.68,6,1,16,0.48
2014-10-17,72,64,56,60,57,54,97,79,54,29.74,29.65,7,1,15,0.00
2014-10-18,72,63,56,59,53,44,91,72,51,29.70,29.55,6,1,16,0.00
2014-10-19,56,51,42,46,37,29,72,59,41,30.05,29.70,8,2,16,0.00
2014-10-20,61,48,34,49,38,30,93,70,47,30.12,29.97,7,1,10,0.00
2014-10-21,66,56,49,59,52,46,95,85,57,29.97,29.82,5,0,7,0.10
2014-10-22,57,54,50,56,52,48,95,92,83,29.92,29.69,12,2,19,1.25
2014-10-23,52,51,49,49,48,47,94,89,81,29.75,29.65,11,3,17,0.26
2014-10-24,61,53,46,49,47,44,94,80,63,29.82,29.73,10,1,14,0.00
2014-10-25,68,55,42,50,45,40,96,71,44,29.86,29.55,6,1,12,0.00
2014-10-26,64,57,51,50,42,38,88,57,40,29.82,29.53,10,2,17,0.00
2014-10-27,66,54,46,44,40,38,89,61,38,30.03,29.82,9,1,11,0.00
2014-10-28,73,58,44,59,51,42,95,81,52,30.05,29.91,6,1,10,0.00
2014-10-29,73,60,51,62,55,44,97,84,48,29.94,29.80,4,0,12,0.06
2014-10-30,60,50,41,51,42,37,97,76,49,30.01,29.92,4,0,8,0.00
2014-10-31,56,49,41,47,42,37,93,76,62,30.01,29.85,5,1,15,0.02
2014-11-1,48,44,42,46,42,39,94,89,77,29.85,29.74,10,3,14,1.06
2014-11-2,49,43,40,40,30,21,93,61,42,30.02,29.71,17,4,27,0.03
2014-11-3,61,49,36,32,28,24,74,47,24,30.14,30.02,6,2,15,0.00
2014-11-4,68,58,48,49,37,25,77,49,25,30.16,30.02,4,1,9,0.00
2014-11-5,65,57,48,50,43,35,82,62,36,30.14,30.00,5,1,10,0.00
2014-11-6,53,50,47,52,48,42,96,93,73,30.12,29.57,1,0,5,0.44
2014-11-7,53,46,39,47,38,28,97,73,54,29.92,29.55,12,2,16,0.03
2014-11-8,47,42,32,35,29,26,83,62,47,30.04,29.92,10,1,12,0.00
2014-11-9,57,48,39,40,38,35,86,70,45,30.01,29.89,4,0,8,0.00
2014-11-10,61,47,34,46,38,32,96,75,41,30.18,30.01,4,0,7,0.00
2014-11-11,65,54,40,57,51,39,97,90,73,30.15,29.90,7,0,11,0.00
2014-11-12,66,57,43,60,52,36,98,85,64,30.07,29.86,5,1,11,0.00
2014-11-13,49,42,36,37,33,30,93,71,50,30.11,29.97,5,1,8,0.13
2014-11-14,43,38,34,36,26,17,94,66,37,30.17,29.94,8,1,13,0.05
2014-11-15,43,34,27,24,22,17,86,61,37,30.36,30.17,6,1,11,0.00
2014-11-16,44,38,26,36,28,23,88,70,50,30.39,30.11,5,0,7,0.01
2014-11-17,53,46,39,53,44,37,98,93,81,30.11,29.50,5,0,12,1.55
2014-11-18,44,32,24,39,13,4,81,48,31,30.10,29.58,16,3,20,0.00
2014-11-19,35,28,22,20,10,4,57,48,37,30.27,30.08,9,3,17,0.00
2014-11-20,47,39,31,27,21,11,56,48,33,30.07,29.84,11,3,16,0.00
2014-11-21,37,31,26,14,12,9,62,46,35,30.50,30.02,11,3,18,0.00
2014-11-22,43,35,22,26,19,14,79,54,38,30.50,30.20,13,2,15,0.00
2014-11-23,54,47,42,51,33,26,95,60,38,30.21,30.00,5,1,11,0.00
2014-11-24,64,60,53,61,58,52,97,92,82,29.99,29.59,11,3,21,0.51
2014-11-25,64,54,48,58,41,30,96,63,38,30.16,29.73,8,1,11,0.00
2014-11-26,50,38,33,37,32,30,95,77,50,30.20,29.71,13,2,17,1.25
2014-11-27,38,28,34,34,24,28,95,63,74,30.05,29.81,5,1,11,0.01
2014-11-28,38,26,25,28,16,14,82,48,52,30.27,30.04,9,2,14,0.00
2014-11-29,45,30,22,38,20,15,84,54,47,30.36,30.22,8,0,11,0.00
2014-11-30,53,41,45,46,34,35,86,59,53,30.21,30.07,10,2,14,0.00
2014-12-1,63,40,41,50,34,30,89,56,61,30.44,30.06,6,1,12,0.08
2014-12-2,45,31,35,44,26,24,95,61,58,30.62,30.28,8,2,14,0.20
2014-12-3,47,32,41,46,30,30,97,63,66,30.26,29.96,6,2,14,0.12
2014-12-4,46,30,36,29,19,22,72,41,41,30.52,30.20,5,1,10,0.00
2014-12-5,48,34,34,47,29,24,96,63,63,30.58,30.33,11,1,13,0.55
2014-12-6,51,32,40,50,31,38,97,66,93,30.33,30.08,7,1,17,1.10
2014-12-7,42,25,29,38,13,8,93,34,39,30.60,30.16,11,2,17,0.02
2014-12-8,36,24,26,32,18,8,87,58,42,30.66,30.33,8,2,14,0.00
2014-12-9,45,16,36,44,16,33,97,38,87,30.32,29.59,11,2,20,0.53
2014-12-10,38,22,32,37,21,26,94,58,75,29.66,29.55,8,2,14,0.10
2014-12-11,37,27,32,29,21,24,81,57,61,29.86,29.59,7,2,14,0.00
2014-12-12,38,26,32,26,19,23,75,51,60,29.98,29.86,10,2,13,0.00
2014-12-13,44,30,31,31,22,25,79,53,51,29.97,29.87,6,1,12,0.00
2014-12-14,45,31,31,34,25,29,91,59,66,29.97,29.85,7,1,11,0.00
2014-12-15,47,30,29,34,26,27,96,65,61,30.12,29.97,8,0,8,0.00
2014-12-16,50,34,30,46,32,29,96,69,76,30.11,29.82,3,0,9,0.29
2014-12-17,53,38,42,45,32,31,97,61,64,29.88,29.78,7,2,14,0.02
2014-12-18,42,30,36,31,21,25,74,49,55,29.98,29.85,8,2,19,0.00
2014-12-19,38,27,31,29,19,22,74,51,55,30.19,29.95,6,1,12,0.00
2014-12-20,32,24,29,24,18,22,75,55,68,30.30,30.18,5,0,7,0.00
2014-12-21,35,27,31,33,23,24,90,65,72,30.33,30.26,3,0,8,0.00
2014-12-22,46,32,35,44,30,32,95,65,82,30.33,30.13,8,1,13,0.02
2014-12-23,48,31,45,46,30,43,97,65,93,30.16,30.05,10,1,12,0.06
2014-12-24,58,22,44,57,22,43,98,43,96,30.07,29.54,6,0,11,0.88
2014-12-25,53,30,44,43,20,31,77,34,44,30.11,29.50,16,3,21,0.00
2014-12-26,50,36,38,34,26,31,80,53,49,30.24,30.12,6,1,12,0.00
2014-12-27,56,36,34,39,28,30,89,56,50,30.26,30.08,3,0,6,0.00
2014-12-28,53,36,42,45,31,32,93,60,67,30.06,29.86,5,1,14,0.02
2014-12-29,44,30,32,32,19,20,70,43,40,30.25,30.05,4,0,9,0.00
2014-12-30,32,24,24,24,13,12,76,47,50,30.40,30.25,6,1,9,0.00
2014-12-31,33,23,24,16,9,9,64,39,40,30.36,30.18,10,2,13,0.00
2015-1-1,38,28,25,23,12,9,60,39,34,30.19,29.98,13,3,19,0.00
2015-1-2,43,30,33,24,17,20,68,41,41,30.45,30.02,12,2,16,0.00